Time;durP1;ratioP1;P1;durP2;ratioP2;P2;SDS_P1;SDS_P2;PMS_P1;PMS_P2;Temp;Humidity;BMP_temperature;BMP_pressure;BME280_temperature;BME280_humidity;BME280_pressure;Samples;Min_cycle;Max_cycle;Signal;HPM_P1;HPM_P2
2023/08/01 00:02:21;;;;;;;2.40;2.20;;;;;;;;;;7306580;19;140984;-80
2023/08/01 00:04:48;;;;;;;3.20;2.55;;;;;;;;;;7307300;19;140629;-81
2023/08/01 00:07:15;;;;;;;2.60;2.30;;;;;;;;;;7311524;19;140478;-80
2023/08/01 00:09:42;;;;;;;2.70;2.40;;;;;;;;;;7311434;19;141022;-81
2023/08/01 00:12:09;;;;;;;2.85;2.35;;;;;;;;;;7308826;19;141993;-81
2023/08/01 00:14:36;;;;;;;3.25;2.50;;;;;;;;;;7312041;19;140425;-82
2023/08/01 00:17:03;;;;;;;3.05;2.33;;;;;;;;;;7307749;19;140456;-82
2023/08/01 00:19:31;;;;;;;2.67;2.38;;;;;;;;;;7306277;19;141834;-82
2023/08/01 00:21:58;;;;;;;2.75;2.47;;;;;;;;;;7307117;19;140477;-81
2023/08/01 00:24:25;;;;;;;3.15;2.60;;;;;;;;;;7305993;19;140395;-81
2023/08/01 00:26:55;;;;;;;2.63;2.25;;;;;;;;;;7307051;19;140360;-80
2023/08/01 00:29:22;;;;;;;2.55;2.30;;;;;;;;;;7306892;19;142247;-81
2023/08/01 00:31:49;;;;;;;2.33;2.08;;;;;;;;;;7307923;19;141863;-81
2023/08/01 00:34:16;;;;;;;2.88;2.17;;;;;;;;;;7307530;19;140399;-80
2023/08/01 00:36:43;;;;;;;2.50;2.30;;;;;;;;;;7309966;19;140654;-81
2023/08/01 00:39:10;;;;;;;3.22;2.20;;;;;;;;;;7304011;19;141014;-78
2023/08/01 00:41:37;;;;;;;2.30;2.10;;;;;;;;;;7306729;19;141426;-79
2023/08/01 00:44:04;;;;;;;2.80;2.40;;;;;;;;;;7306806;19;140375;-79
2023/08/01 00:46:33;;;;;;;2.42;2.20;;;;;;;;;;7306702;19;140451;-79
2023/08/01 00:49:00;;;;;;;2.58;2.00;;;;;;;;;;7304993;19;141710;-79
2023/08/01 00:51:27;;;;;;;2.40;2.20;;;;;;;;;;7306007;19;142004;-79
2023/08/01 00:53:54;;;;;;;3.88;2.30;;;;;;;;;;7305041;19;140851;-80
2023/08/01 00:56:21;;;;;;;2.65;2.38;;;;;;;;;;7305432;19;140713;-80
2023/08/01 00:58:48;;;;;;;2.45;2.25;;;;;;;;;;7305872;19;142235;-79
2023/08/01 01:01:16;;;;;;;2.40;1.95;;;;;;;;;;7306495;19;141865;-80
2023/08/01 01:03:43;;;;;;;2.45;2.05;;;;;;;;;;7306131;19;140385;-80
2023/08/01 01:06:17;;;;;;;2.17;1.95;;;;;;;;;;7305840;19;140735;-80
2023/08/01 01:08:45;;;;;;;2.53;2.33;;;;;;;;;;7305729;19;142157;-80
2023/08/01 01:11:13;;;;;;;3.10;2.45;;;;;;;;;;7304878;19;141202;-77
2023/08/01 01:13:40;;;;;;;2.42;2.17;;;;;;;;;;7304730;19;140719;-79
2023/08/01 01:16:07;;;;;;;3.00;2.20;;;;;;;;;;7305062;19;140809;-79
2023/08/01 01:18:35;;;;;;;2.75;2.35;;;;;;;;;;7304606;19;141502;-78
2023/08/01 01:21:03;;;;;;;2.53;2.30;;;;;;;;;;7304657;19;142015;-78
2023/08/01 01:23:30;;;;;;;3.33;2.30;;;;;;;;;;7305027;19;140643;-80
2023/08/01 01:25:58;;;;;;;2.13;1.90;;;;;;;;;;7305382;19;140694;-80
2023/08/01 01:28:26;;;;;;;2.80;2.25;;;;;;;;;;7303806;19;140656;-80
2023/08/01 01:30:53;;;;;;;3.85;2.42;;;;;;;;;;7303808;19;142411;-78
2023/08/01 01:33:20;;;;;;;2.58;2.17;;;;;;;;;;7302685;19;140495;-79
2023/08/01 01:35:47;;;;;;;2.88;2.10;;;;;;;;;;7303158;19;140923;-87
2023/08/01 01:38:15;;;;;;;2.15;2.00;;;;;;;;;;7305574;19;140411;-86
2023/08/01 01:40:41;;;;;;;2.22;2.03;;;;;;;;;;7306247;19;142033;-84
2023/08/01 01:43:09;;;;;;;2.50;2.30;;;;;;;;;;7305722;19;141217;-84
2023/08/01 01:45:36;;;;;;;2.42;2.22;;;;;;;;;;7304968;19;140505;-85
2023/08/01 01:48:03;;;;;;;2.10;1.90;;;;;;;;;;7304728;19;141726;-84
2023/08/01 01:50:30;;;;;;;2.40;2.13;;;;;;;;;;7305232;19;140966;-82
2023/08/01 01:52:59;;;;;;;2.15;1.95;;;;;;;;;;7303077;19;140593;-82
2023/08/01 01:55:26;;;;;;;3.13;2.33;;;;;;;;;;7302384;19;140658;-82
2023/08/01 01:57:53;;;;;;;2.15;1.95;;;;;;;;;;7303096;19;141199;-83
2023/08/01 02:00:20;;;;;;;3.15;2.00;;;;;;;;;;7301927;19;140988;-82
2023/08/01 02:02:47;;;;;;;2.10;1.90;;;;;;;;;;7310087;19;140603;-83
2023/08/01 02:05:14;;;;;;;2.13;1.90;;;;;;;;;;7312480;19;140749;-79
2023/08/01 02:07:41;;;;;;;2.38;2.17;;;;;;;;;;7310936;19;141022;-79
2023/08/01 02:10:08;;;;;;;2.25;2.05;;;;;;;;;;7310825;19;141511;-79
2023/08/01 02:12:35;;;;;;;2.50;2.05;;;;;;;;;;7310368;19;140645;-79
2023/08/01 02:15:03;;;;;;;2.75;2.20;;;;;;;;;;7313533;19;140755;-80
2023/08/01 02:17:33;;;;;;;1.90;1.80;;;;;;;;;;7312058;19;141891;-79
2023/08/01 02:20:00;;;;;;;2.38;2.05;;;;;;;;;;7311590;19;142564;-80
2023/08/01 02:22:27;;;;;;;2.38;1.92;;;;;;;;;;7311259;19;140409;-80
2023/08/01 02:24:54;;;;;;;2.92;2.17;;;;;;;;;;7310754;19;140597;-80
2023/08/01 02:27:21;;;;;;;2.45;2.05;;;;;;;;;;7311299;19;141703;-80
2023/08/01 02:29:50;;;;;;;2.08;1.88;;;;;;;;;;7311005;19;142219;-79
2023/08/01 02:32:18;;;;;;;2.08;1.88;;;;;;;;;;7310748;19;140638;-80
2023/08/01 02:34:45;;;;;;;2.00;1.77;;;;;;;;;;7309670;19;140804;-81
2023/08/01 02:37:13;;;;;;;1.90;1.75;;;;;;;;;;7310919;19;142119;-80
2023/08/01 02:39:40;;;;;;;2.00;1.75;;;;;;;;;;7310157;19;141903;-80
2023/08/01 02:42:08;;;;;;;2.30;2.10;;;;;;;;;;7311405;19;140326;-79
2023/08/01 02:44:35;;;;;;;2.20;2.00;;;;;;;;;;7310175;19;141851;-79
2023/08/01 02:47:02;;;;;;;2.20;2.00;;;;;;;;;;7310553;19;140738;-76
2023/08/01 02:49:29;;;;;;;1.85;1.73;;;;;;;;;;7309663;19;142122;-80
2023/08/01 02:51:56;;;;;;;2.58;1.90;;;;;;;;;;7308326;19;140477;-80
2023/08/01 02:54:23;;;;;;;2.17;1.70;;;;;;;;;;7309757;19;140287;-78
2023/08/01 02:56:51;;;;;;;1.85;1.75;;;;;;;;;;7309725;19;140947;-78
2023/08/01 02:59:20;;;;;;;2.05;1.75;;;;;;;;;;7309619;19;142109;-81
2023/08/01 03:01:47;;;;;;;1.90;1.70;;;;;;;;;;7308568;19;141122;-78
2023/08/01 03:04:14;;;;;;;1.70;1.60;;;;;;;;;;7310137;19;140402;-78
2023/08/01 03:06:41;;;;;;;2.10;1.90;;;;;;;;;;7309696;19;141760;-79
2023/08/01 03:09:08;;;;;;;2.03;1.83;;;;;;;;;;7308640;19;141785;-79
2023/08/01 03:11:36;;;;;;;2.03;1.83;;;;;;;;;;7308368;19;140302;-79
2023/08/01 03:14:04;;;;;;;1.45;1.35;;;;;;;;;;7308645;19;140716;-80
2023/08/01 03:16:31;;;;;;;2.50;1.92;;;;;;;;;;7309223;19;141188;-79
2023/08/01 03:19:04;;;;;;;2.05;1.70;;;;;;;;;;7307840;19;141432;-79
2023/08/01 03:21:32;;;;;;;1.98;1.70;;;;;;;;;;7308848;19;140731;-79
2023/08/01 03:23:59;;;;;;;1.98;1.73;;;;;;;;;;7308840;19;140632;-80
2023/08/01 03:26:28;;;;;;;1.65;1.55;;;;;;;;;;7307938;19;141455;-80
2023/08/01 03:28:56;;;;;;;2.45;2.08;;;;;;;;;;7308578;19;142716;-79
2023/08/01 03:31:23;;;;;;;1.70;1.60;;;;;;;;;;7307165;19;140512;-78
2023/08/01 03:33:50;;;;;;;1.67;1.58;;;;;;;;;;7308249;19;141952;-78
2023/08/01 03:36:17;;;;;;;1.48;1.38;;;;;;;;;;7307867;19;141483;-77
2023/08/01 03:38:44;;;;;;;2.78;2.10;;;;;;;;;;7306933;19;142539;-79
2023/08/01 03:41:11;;;;;;;2.25;2.00;;;;;;;;;;7308738;19;140497;-80
2023/08/01 03:43:38;;;;;;;2.10;1.70;;;;;;;;;;7308155;19;140610;-79
2023/08/01 03:46:06;;;;;;;1.75;1.65;;;;;;;;;;7307753;19;141997;-79
2023/08/01 03:48:34;;;;;;;1.85;1.70;;;;;;;;;;7308482;19;142081;-79
2023/08/01 03:51:03;;;;;;;1.50;1.40;;;;;;;;;;7308303;19;140735;-79
2023/08/01 03:53:30;;;;;;;1.85;1.52;;;;;;;;;;7305699;19;140452;-78
2023/08/01 03:55:58;;;;;;;1.75;1.65;;;;;;;;;;7306536;19;141322;-79
2023/08/01 03:58:25;;;;;;;1.75;1.65;;;;;;;;;;7308073;19;140852;-79
2023/08/01 04:00:52;;;;;;;1.77;1.67;;;;;;;;;;7307559;19;140856;-79
2023/08/01 04:03:22;;;;;;;1.77;1.60;;;;;;;;;;7308202;19;140387;-79
2023/08/01 04:05:49;;;;;;;1.80;1.52;;;;;;;;;;7308131;19;140489;-80
2023/08/01 04:08:16;;;;;;;1.80;1.70;;;;;;;;;;7307485;19;141537;-81
2023/08/01 04:10:43;;;;;;;1.65;1.55;;;;;;;;;;7307650;19;140417;-81
2023/08/01 04:13:10;;;;;;;1.75;1.52;;;;;;;;;;7306279;19;140449;-80
2023/08/01 04:15:37;;;;;;;2.25;1.83;;;;;;;;;;7306300;19;141052;-80
2023/08/01 04:18:04;;;;;;;1.90;1.70;;;;;;;;;;7307901;19;142241;-81
2023/08/01 04:20:31;;;;;;;1.88;1.70;;;;;;;;;;7307772;19;140693;-79
2023/08/01 04:22:58;;;;;;;1.88;1.77;;;;;;;;;;7308313;19;140495;-80
2023/08/01 04:25:26;;;;;;;1.65;1.52;;;;;;;;;;7304817;19;140772;-80
2023/08/01 04:27:53;;;;;;;2.13;1.70;;;;;;;;;;7307629;19;142571;-78
2023/08/01 04:30:20;;;;;;;1.70;1.58;;;;;;;;;;7308339;19;140776;-78
2023/08/01 04:32:48;;;;;;;1.50;1.40;;;;;;;;;;7305067;19;140672;-79
2023/08/01 04:35:15;;;;;;;1.85;1.70;;;;;;;;;;7305735;19;140966;-80
2023/08/01 04:37:42;;;;;;;2.22;1.70;;;;;;;;;;7306633;19;142006;-80
2023/08/01 04:40:09;;;;;;;2.35;1.60;;;;;;;;;;7306815;19;140330;-80
2023/08/01 04:42:36;;;;;;;1.88;1.65;;;;;;;;;;7306373;19;140532;-79
2023/08/01 04:45:05;;;;;;;1.90;1.70;;;;;;;;;;7305926;19;141123;-85
2023/08/01 04:47:32;;;;;;;1.60;1.50;;;;;;;;;;7306213;19;142261;-81
2023/08/01 04:49:59;;;;;;;1.70;1.60;;;;;;;;;;7306135;19;140337;-84
2023/08/01 04:52:26;;;;;;;1.90;1.30;;;;;;;;;;7302989;19;140580;-80
2023/08/01 04:54:53;;;;;;;1.92;1.67;;;;;;;;;;7305634;19;141355;-80
2023/08/01 04:57:20;;;;;;;1.77;1.42;;;;;;;;;;7304752;19;141228;-77
2023/08/01 04:59:47;;;;;;;2.55;2.35;;;;;;;;;;7306231;19;140352;-78
2023/08/01 05:02:14;;;;;;;2.97;2.58;;;;;;;;;;7306652;19;140377;-78
2023/08/01 05:04:41;;;;;;;3.60;2.58;;;;;;;;;;7304928;19;141548;-78
2023/08/01 05:07:08;;;;;;;4.10;2.90;;;;;;;;;;7306039;19;142177;-78
2023/08/01 05:09:35;;;;;;;3.28;2.40;;;;;;;;;;7305349;19;140578;-78
2023/08/01 05:12:02;;;;;;;3.03;2.47;;;;;;;;;;7303282;19;140288;-78
2023/08/01 05:14:29;;;;;;;2.85;2.55;;;;;;;;;;7304547;19;141366;-78
2023/08/01 05:17:01;;;;;;;3.85;2.90;;;;;;;;;;7304581;19;141960;-78
2023/08/01 05:19:28;;;;;;;2.63;2.42;;;;;;;;;;7305367;19;140443;-78
2023/08/01 05:21:55;;;;;;;4.05;2.58;;;;;;;;;;7305668;19;140383;-79
2023/08/01 05:24:22;;;;;;;3.85;2.63;;;;;;;;;;7302319;19;142068;-79
2023/08/01 05:26:49;;;;;;;4.22;2.75;;;;;;;;;;7304810;19;141847;-79
2023/08/01 05:29:16;;;;;;;3.85;2.65;;;;;;;;;;7304613;19;140731;-79
2023/08/01 05:31:43;;;;;;;2.83;2.40;;;;;;;;;;7304825;19;140544;-78
2023/08/01 05:34:10;;;;;;;3.80;2.30;;;;;;;;;;7304389;19;140933;-79
2023/08/01 05:36:38;;;;;;;2.78;2.28;;;;;;;;;;7304268;19;141009;-79
2023/08/01 05:39:05;;;;;;;2.97;2.38;;;;;;;;;;7305166;19;140528;-80
2023/08/01 05:41:32;;;;;;;3.00;2.35;;;;;;;;;;7304324;19;140653;-79
2023/08/01 05:44:00;;;;;;;3.58;2.47;;;;;;;;;;7303028;19;142092;-79
2023/08/01 05:46:27;;;;;;;2.65;2.40;;;;;;;;;;7304507;19;142006;-79
2023/08/01 05:48:54;;;;;;;2.45;2.25;;;;;;;;;;7305101;19;140534;-77
2023/08/01 05:51:22;;;;;;;3.17;2.22;;;;;;;;;;7304272;19;140528;-77
2023/08/01 05:53:49;;;;;;;3.45;2.30;;;;;;;;;;7302008;19;140494;-78
2023/08/01 05:56:16;;;;;;;3.00;2.40;;;;;;;;;;7303102;19;141021;-78
2023/08/01 05:58:43;;;;;;;3.53;2.20;;;;;;;;;;7304202;19;140949;-78
2023/08/01 06:01:11;;;;;;;3.17;2.30;;;;;;;;;;7304357;19;140501;-77
2023/08/01 06:03:38;;;;;;;2.75;2.45;;;;;;;;;;7303053;19;141198;-77
2023/08/01 06:06:05;;;;;;;2.75;2.28;;;;;;;;;;7302892;19;141831;-77
2023/08/01 06:08:32;;;;;;;3.25;2.40;;;;;;;;;;7303465;19;140585;-78
2023/08/01 06:10:59;;;;;;;3.25;2.30;;;;;;;;;;7302504;19;140605;-78
2023/08/01 06:13:27;;;;;;;2.92;2.33;;;;;;;;;;7303191;19;140869;-78
2023/08/01 06:15:54;;;;;;;2.20;1.95;;;;;;;;;;7303669;19;142034;-76
2023/08/01 06:18:21;;;;;;;2.88;2.47;;;;;;;;;;7304415;19;140527;-77
2023/08/01 06:20:48;;;;;;;2.50;2.25;;;;;;;;;;7302694;19;140536;-77
2023/08/01 06:23:15;;;;;;;2.53;1.95;;;;;;;;;;7304162;19;140889;-78
2023/08/01 06:25:42;;;;;;;3.10;2.30;;;;;;;;;;7303499;19;140815;-78
2023/08/01 06:28:09;;;;;;;2.40;2.20;;;;;;;;;;7303977;19;140718;-78
2023/08/01 06:30:36;;;;;;;2.50;2.30;;;;;;;;;;7300983;19;140653;-79
2023/08/01 06:33:03;;;;;;;2.95;2.05;;;;;;;;;;7302594;19;141508;-78
2023/08/01 06:35:30;;;;;;;2.20;2.00;;;;;;;;;;7303176;19;141439;-77
2023/08/01 06:37:57;;;;;;;2.40;2.20;;;;;;;;;;7303641;19;140660;-78
2023/08/01 06:40:25;;;;;;;2.90;2.28;;;;;;;;;;7302850;19;140696;-78
2023/08/01 06:42:52;;;;;;;2.53;2.05;;;;;;;;;;7302882;19;141728;-78
2023/08/01 06:45:19;;;;;;;2.28;2.08;;;;;;;;;;7303404;19;140724;-80
2023/08/01 06:47:46;;;;;;;3.00;2.30;;;;;;;;;;7304807;19;140461;-78
2023/08/01 06:50:13;;;;;;;2.03;1.85;;;;;;;;;;7309602;19;140403;-78
2023/08/01 06:52:40;;;;;;;2.35;1.98;;;;;;;;;;7309948;19;141179;-79
2023/08/01 06:55:08;;;;;;;3.03;2.10;;;;;;;;;;7309333;19;142735;-78
2023/08/01 06:57:35;;;;;;;2.63;2.22;;;;;;;;;;7308691;19;140488;-78
2023/08/01 07:00:03;;;;;;;2.15;1.90;;;;;;;;;;7309881;19;140716;-80
2023/08/01 07:02:30;;;;;;;2.40;2.13;;;;;;;;;;7308424;19;142026;-78
2023/08/01 07:04:57;;;;;;;2.22;1.85;;;;;;;;;;7307906;19;141180;-78
2023/08/01 07:07:24;;;;;;;2.00;1.80;;;;;;;;;;7307994;19;140486;-78
2023/08/01 07:09:51;;;;;;;3.33;2.13;;;;;;;;;;7307236;19;140635;-77
2023/08/01 07:12:18;;;;;;;2.00;1.80;;;;;;;;;;7309199;19;141740;-78
2023/08/01 07:14:45;;;;;;;2.20;2.00;;;;;;;;;;7307435;19;142072;-78
2023/08/01 07:17:12;;;;;;;2.15;1.77;;;;;;;;;;7308958;19;140731;-80
2023/08/01 07:19:39;;;;;;;1.77;1.67;;;;;;;;;;7309516;19;140595;-79
2023/08/01 07:22:06;;;;;;;2.45;1.80;;;;;;;;;;7308678;19;140940;-79
2023/08/01 07:24:33;;;;;;;2.05;1.63;;;;;;;;;;7306750;19;142553;-79
2023/08/01 07:27:00;;;;;;;1.90;1.80;;;;;;;;;;7308609;19;140459;-79
2023/08/01 07:29:27;;;;;;;2.15;1.88;;;;;;;;;;7308425;19;140581;-79
2023/08/01 07:31:54;;;;;;;1.80;1.70;;;;;;;;;;7308732;19;141543;-79
2023/08/01 07:34:22;;;;;;;2.50;1.80;;;;;;;;;;7307959;19;142048;-79
2023/08/01 07:36:49;;;;;;;2.17;1.98;;;;;;;;;;7308879;19;140640;-76
2023/08/01 07:39:16;;;;;;;2.30;1.80;;;;;;;;;;7308315;19;141121;-77
2023/08/01 07:41:46;;;;;;;1.77;1.67;;;;;;;;;;7307928;19;141185;-78
2023/08/01 07:44:14;;;;;;;2.25;1.90;;;;;;;;;;7306600;19;141217;-81
2023/08/01 07:46:41;;;;;;;2.00;1.80;;;;;;;;;;7306657;19;140500;-77
2023/08/01 07:49:09;;;;;;;2.55;1.80;;;;;;;;;;7308086;19;140700;-77
2023/08/01 07:51:36;;;;;;;2.00;1.80;;;;;;;;;;7307273;19;141312;-77
2023/08/01 07:54:08;;;;;;;2.63;1.98;;;;;;;;;;7308664;19;142615;-77
2023/08/01 07:56:35;;;;;;;2.85;1.73;;;;;;;;;;7307633;19;140587;-76
2023/08/01 07:59:02;;;;;;;1.70;1.60;;;;;;;;;;7308150;19;140556;-77
2023/08/01 08:01:29;;;;;;;2.00;1.77;;;;;;;;;;7307330;19;141795;-76
2023/08/01 08:03:56;;;;;;;1.92;1.70;;;;;;;;;;7307999;19;142574;-76
2023/08/01 08:06:24;;;;;;;1.85;1.70;;;;;;;;;;7307390;19;140669;-78
2023/08/01 08:08:51;;;;;;;2.13;1.77;;;;;;;;;;7306337;19;140526;-76
2023/08/01 08:11:18;;;;;;;1.98;1.75;;;;;;;;;;7305351;19;141241;-76
2023/08/01 08:13:45;;;;;;;1.92;1.60;;;;;;;;;;7306588;19;142813;-76
2023/08/01 08:16:12;;;;;;;2.10;1.77;;;;;;;;;;7307031;19;140732;-76
2023/08/01 08:18:48;;;;;;;2.30;1.90;;;;;;;;;;7307480;19;141196;-76
2023/08/01 08:21:26;;;;;;;3.75;2.10;;;;;;;;;;7307167;19;140591;-76
2023/08/01 08:23:53;;;;;;;1.67;1.40;;;;;;;;;;7306277;19;141950;-76
2023/08/01 08:26:20;;;;;;;2.08;1.83;;;;;;;;;;7305869;19;140626;-76
2023/08/01 08:28:47;;;;;;;2.13;1.77;;;;;;;;;;7309567;19;140453;-76
2023/08/01 08:31:14;;;;;;;1.98;1.70;;;;;;;;;;7307100;19;142102;-79
2023/08/01 08:33:41;;;;;;;1.77;1.67;;;;;;;;;;7305462;19;140678;-76
2023/08/01 08:36:08;;;;;;;2.25;1.85;;;;;;;;;;7306122;19;140710;-76
2023/08/01 08:38:35;;;;;;;1.90;1.70;;;;;;;;;;7307343;19;140347;-77
2023/08/01 08:41:08;;;;;;;1.70;1.60;;;;;;;;;;7306607;19;141771;-77
2023/08/01 08:43:35;;;;;;;1.90;1.63;;;;;;;;;;7307240;19;141282;-77
2023/08/01 08:46:03;;;;;;;1.75;1.65;;;;;;;;;;7305764;19;140420;-77
2023/08/01 08:48:31;;;;;;;1.85;1.75;;;;;;;;;;7304946;19;141211;-77
2023/08/01 08:50:59;;;;;;;1.60;1.50;;;;;;;;;;7305194;19;141536;-78
2023/08/01 08:53:26;;;;;;;2.05;1.67;;;;;;;;;;7305142;19;141068;-91
2023/08/01 08:55:53;;;;;;;1.65;1.50;;;;;;;;;;7303681;19;140444;-85
2023/08/01 08:58:20;;;;;;;2.10;1.77;;;;;;;;;;7305707;19;140546;-82
2023/08/01 09:00:48;;;;;;;1.98;1.75;;;;;;;;;;7305415;19;141714;-86
2023/08/01 09:03:19;;;;;;;2.40;1.85;;;;;;;;;;7308292;19;142691;-82
2023/08/01 09:05:54;;;;;;;1.85;1.73;;;;;;;;;;7304845;19;140804;-85
2023/08/01 09:08:24;;;;;;;2.60;1.80;;;;;;;;;;7305850;19;140660;-82
2023/08/01 09:10:51;;;;;;;1.88;1.50;;;;;;;;;;7304879;19;142386;-84
2023/08/01 09:13:18;;;;;;;2.08;1.70;;;;;;;;;;7308104;19;140995;-82
2023/08/01 09:15:46;;;;;;;1.90;1.60;;;;;;;;;;7308021;19;140750;-74
2023/08/01 09:18:14;;;;;;;1.60;1.50;;;;;;;;;;7307087;19;140580;-74
2023/08/01 09:20:46;;;;;;;1.88;1.40;;;;;;;;;;7306832;19;141448;-73
2023/08/01 09:23:14;;;;;;;1.88;1.50;;;;;;;;;;7308577;19;142822;-74
2023/08/01 09:25:41;;;;;;;2.45;1.77;;;;;;;;;;7304674;19;140452;-74
2023/08/01 09:28:17;;;;;;;1.95;1.70;;;;;;;;;;7302218;19;140425;-74
2023/08/01 09:30:51;;;;;;;1.98;1.50;;;;;;;;;;7304133;19;140968;-76
2023/08/01 09:33:19;;;;;;;1.58;1.48;;;;;;;;;;7305120;19;142749;-76
2023/08/01 09:35:48;;;;;;;1.95;1.75;;;;;;;;;;7305840;19;140554;-76
2023/08/01 09:38:16;;;;;;;1.75;1.48;;;;;;;;;;7305490;19;140450;-75
2023/08/01 09:40:44;;;;;;;2.55;1.65;;;;;;;;;;7302655;19;140939;-79
2023/08/01 09:43:11;;;;;;;1.70;1.60;;;;;;;;;;7305195;19;141508;-83
2023/08/01 09:45:59;;;;;;;2.25;1.80;;;;;;;;;;7305287;19;140567;-84
2023/08/01 09:48:27;;;;;;;1.35;1.25;;;;;;;;;;7307450;19;140410;-86
2023/08/01 09:51:05;;;;;;;1.73;1.60;;;;;;;;;;7304516;19;142336;-91
2023/08/01 09:53:32;;;;;;;1.60;1.50;;;;;;;;;;7307054;19;141085;-85
2023/08/01 09:56:00;;;;;;;1.73;1.60;;;;;;;;;;7303287;19;140415;-86
2023/08/01 09:58:36;;;;;;;1.60;1.42;;;;;;;;;;7304879;19;140424;-86
2023/08/01 10:01:04;;;;;;;1.85;1.55;;;;;;;;;;7307399;19;141310;-90
2023/08/01 10:03:31;;;;;;;1.50;1.40;;;;;;;;;;7305697;19;141544;-75
2023/08/01 10:05:59;;;;;;;1.92;1.52;;;;;;;;;;7304489;19;140708;-77
2023/08/01 10:08:28;;;;;;;2.00;1.63;;;;;;;;;;7305559;19;140514;-76
2023/08/01 10:10:58;;;;;;;2.75;1.88;;;;;;;;;;7303000;19;141128;-78
2023/08/01 10:13:26;;;;;;;2.03;1.70;;;;;;;;;;7303435;19;141167;-77
2023/08/01 10:15:55;;;;;;;2.03;1.50;;;;;;;;;;7304459;19;140460;-77
2023/08/01 10:18:23;;;;;;;2.17;1.52;;;;;;;;;;7304995;19;140668;-76
2023/08/01 10:20:50;;;;;;;1.80;1.63;;;;;;;;;;7306612;19;141962;-77
2023/08/01 10:23:19;;;;;;;1.83;1.58;;;;;;;;;;7308584;19;140896;-78
2023/08/01 10:25:46;;;;;;;2.10;1.90;;;;;;;;;;7312022;19;140316;-78
2023/08/01 10:28:14;;;;;;;2.45;1.70;;;;;;;;;;7312240;19;140491;-80
2023/08/01 10:30:41;;;;;;;1.98;1.60;;;;;;;;;;7311975;19;141728;-78
2023/08/01 10:33:12;;;;;;;2.38;1.35;;;;;;;;;;7312595;19;142262;-79
2023/08/01 10:35:43;;;;;;;1.52;1.42;;;;;;;;;;7311429;19;140643;-79
2023/08/01 10:38:11;;;;;;;1.80;1.70;;;;;;;;;;7309698;19;140801;-78
2023/08/01 10:40:39;;;;;;;1.70;1.60;;;;;;;;;;7309753;19;142314;-78
2023/08/01 10:43:06;;;;;;;1.92;1.52;;;;;;;;;;7311088;19;142568;-79
2023/08/01 10:45:36;;;;;;;1.65;1.55;;;;;;;;;;7310992;19;140240;-77
2023/08/01 10:48:09;;;;;;;1.85;1.75;;;;;;;;;;7310828;19;140603;-82
2023/08/01 10:50:37;;;;;;;2.05;1.83;;;;;;;;;;7309887;19;141283;-79
2023/08/01 10:53:07;;;;;;;2.05;1.83;;;;;;;;;;7306354;19;141086;-78
2023/08/01 10:55:46;;;;;;;2.78;1.65;;;;;;;;;;7310317;19;140674;-76
2023/08/01 10:58:14;;;;;;;2.13;1.43;;;;;;;;;;7306696;19;140859;-79
2023/08/01 11:00:42;;;;;;;2.00;1.65;;;;;;;;;;7309027;19;141222;-77
2023/08/01 11:03:09;;;;;;;2.45;1.48;;;;;;;;;;7310161;19;141063;-79
2023/08/01 11:05:37;;;;;;;1.70;1.60;;;;;;;;;;7307851;19;140829;-73
2023/08/01 11:08:05;;;;;;;1.60;1.50;;;;;;;;;;7307019;19;140714;-73
2023/08/01 11:10:33;;;;;;;1.55;1.45;;;;;;;;;;7305027;19;141441;-74
2023/08/01 11:13:00;;;;;;;2.88;1.73;;;;;;;;;;7306324;19;142635;-73
2023/08/01 11:15:27;;;;;;;2.15;1.70;;;;;;;;;;7305808;19;140693;-73
2023/08/01 11:17:55;;;;;;;2.25;1.55;;;;;;;;;;7307476;19;140619;-80
2023/08/01 11:20:24;;;;;;;1.73;1.63;;;;;;;;;;7306272;19;140946;-78
2023/08/01 11:22:51;;;;;;;2.40;1.63;;;;;;;;;;7306222;19;141061;-85
2023/08/01 11:25:18;;;;;;;1.90;1.48;;;;;;;;;;7309159;19;140749;-84
2023/08/01 11:27:45;;;;;;;1.90;1.65;;;;;;;;;;7309946;19;140483;-86
2023/08/01 11:30:12;;;;;;;1.80;1.70;;;;;;;;;;7308308;19;142085;-84
2023/08/01 11:32:39;;;;;;;1.67;1.58;;;;;;;;;;7309191;19;142429;-82
2023/08/01 11:35:07;;;;;;;2.90;1.63;;;;;;;;;;7309495;19;140837;-82
2023/08/01 11:37:35;;;;;;;1.70;1.60;;;;;;;;;;7310008;19;140777;-85
2023/08/01 11:40:03;;;;;;;2.80;1.77;;;;;;;;;;7309650;19;141714;-81
2023/08/01 11:42:31;;;;;;;3.15;1.70;;;;;;;;;;7308000;19;143158;-83
2023/08/01 11:45:13;;;;;;;1.92;1.70;;;;;;;;;;7307357;19;140603;-81
2023/08/01 11:47:47;;;;;;;1.80;1.60;;;;;;;;;;7306070;19;140598;-86
2023/08/01 11:50:20;;;;;;;2.03;1.70;;;;;;;;;;7306549;19;140704;-82
2023/08/01 11:52:48;;;;;;;1.60;1.33;;;;;;;;;;7306223;19;140940;-84
2023/08/01 11:55:19;;;;;;;1.70;1.40;;;;;;;;;;7313871;19;140557;-85
2023/08/01 11:57:53;;;;;;;1.50;1.40;;;;;;;;;;7315854;19;140530;-83
2023/08/01 12:00:35;;;;;;;1.77;1.60;;;;;;;;;;7312807;19;141336;-85
2023/08/01 12:03:06;;;;;;;2.50;1.90;;;;;;;;;;7312572;19;140899;-87
2023/08/01 12:05:34;;;;;;;2.65;1.60;;;;;;;;;;7311816;19;140452;-85
2023/08/01 12:08:13;;;;;;;2.13;1.50;;;;;;;;;;7309898;19;140764;-85
2023/08/01 12:10:41;;;;;;;1.85;1.60;;;;;;;;;;7308952;19;140596;-85
2023/08/01 12:13:21;;;;;;;1.42;1.20;;;;;;;;;;7309372;19;142975;-86
2023/08/01 12:15:51;;;;;;;2.25;1.63;;;;;;;;;;7308887;19;140699;-81
2023/08/01 12:18:29;;;;;;;1.50;1.40;;;;;;;;;;7307857;19;140271;-86
2023/08/01 12:20:59;;;;;;;1.50;1.40;;;;;;;;;;7306806;19;140948;-82
2023/08/01 12:23:26;;;;;;;1.77;1.38;;;;;;;;;;7307647;19;142391;-81
2023/08/01 12:25:57;;;;;;;1.70;1.50;;;;;;;;;;7308640;19;140474;-81
2023/08/01 12:28:27;;;;;;;1.50;1.30;;;;;;;;;;7312635;19;140523;-81
2023/08/01 12:30:58;;;;;;;1.60;1.50;;;;;;;;;;7308241;19;141823;-81
2023/08/01 12:33:26;;;;;;;1.60;1.50;;;;;;;;;;7309295;19;140618;-75
2023/08/01 12:35:54;;;;;;;2.20;1.65;;;;;;;;;;7308930;19;140347;-83
2023/08/01 12:38:23;;;;;;;1.75;1.40;;;;;;;;;;7307995;19;140571;-87
2023/08/01 12:40:50;;;;;;;1.75;1.45;;;;;;;;;;7309913;19;141994;-81
2023/08/01 12:43:18;;;;;;;2.20;1.30;;;;;;;;;;7304060;19;141375;-79
2023/08/01 12:45:46;;;;;;;1.40;1.30;;;;;;;;;;7304218;19;140497;-81
2023/08/01 12:48:17;;;;;;;1.98;1.52;;;;;;;;;;7306276;19;140417;-80
2023/08/01 12:50:45;;;;;;;2.45;1.70;;;;;;;;;;7309819;19;140793;-81
2023/08/01 12:53:20;;;;;;;1.70;1.40;;;;;;;;;;7305792;19;141185;-81
2023/08/01 12:55:49;;;;;;;1.77;1.60;;;;;;;;;;7307951;19;140464;-81
2023/08/01 12:58:17;;;;;;;2.13;1.40;;;;;;;;;;7306939;19;141396;-85
2023/08/01 13:01:04;;;;;;;1.48;1.38;;;;;;;;;;7317955;19;141371;-82
2023/08/01 13:03:55;;;;;;;2.13;1.58;;;;;;;;;;7316866;19;141167;-82
2023/08/01 13:06:23;;;;;;;1.52;1.38;;;;;;;;;;7310030;19;140532;-83
2023/08/01 13:09:11;;;;;;;1.63;1.20;;;;;;;;;;7308056;19;140524;-83
2023/08/01 13:11:43;;;;;;;1.30;1.20;;;;;;;;;;7308168;19;141736;-83
2023/08/01 13:14:10;;;;;;;2.60;1.30;;;;;;;;;;7305030;19;142689;-83
2023/08/01 13:16:37;;;;;;;1.42;1.30;;;;;;;;;;7310382;19;140592;-80
2023/08/01 13:19:06;;;;;;;2.08;1.50;;;;;;;;;;7304839;19;140943;-82
2023/08/01 13:21:36;;;;;;;1.38;1.23;;;;;;;;;;7302164;19;140697;-82
2023/08/01 13:24:04;;;;;;;2.75;1.60;;;;;;;;;;7306121;19;142642;-82
2023/08/01 13:26:31;;;;;;;2.05;1.48;;;;;;;;;;7304916;19;140603;-82
2023/08/01 13:28:59;;;;;;;3.17;1.92;;;;;;;;;;7302048;19;140601;-83
2023/08/01 13:31:27;;;;;;;2.08;1.52;;;;;;;;;;7303372;19;140449;-83
2023/08/01 13:34:01;;;;;;;5.22;2.05;;;;;;;;;;7305729;19;141782;-83
2023/08/01 13:36:28;;;;;;;2.20;1.60;;;;;;;;;;7304026;19;140469;-81
2023/08/01 13:38:56;;;;;;;2.03;1.60;;;;;;;;;;7306754;19;140698;-81
2023/08/01 13:41:23;;;;;;;1.85;1.58;;;;;;;;;;7304806;19;141931;-82
2023/08/01 13:46:20;;;;;;;2.67;1.52;;;;;;;;;;7304119;19;140682;-82
2023/08/01 13:48:55;;;;;;;1.67;1.30;;;;;;;;;;7304888;19;140598;-82
2023/08/01 13:51:22;;;;;;;1.60;1.27;;;;;;;;;;7305011;19;141230;-81
2023/08/01 13:53:49;;;;;;;2.20;1.58;;;;;;;;;;7303681;19;140829;-82
2023/08/01 13:56:19;;;;;;;1.90;1.33;;;;;;;;;;7308664;19;140606;-82
2023/08/01 13:58:48;;;;;;;3.15;1.58;;;;;;;;;;7311567;19;140685;-82
2023/08/01 14:01:20;;;;;;;;;;;;;;;;;;7313738;19;140978;-80
2023/08/01 14:03:50;;;;;;;1.88;1.27;;;;;;;;;;7312578;19;141390;-80
2023/08/01 14:06:18;;;;;;;2.15;1.50;;;;;;;;;;7313219;19;140301;-80
2023/08/01 14:08:45;;;;;;;2.72;1.60;;;;;;;;;;7309729;19;140775;-80
2023/08/01 14:11:12;;;;;;;1.73;1.30;;;;;;;;;;7311126;19;140767;-80
2023/08/01 14:13:39;;;;;;;2.38;1.40;;;;;;;;;;7310587;19;140708;-82
2023/08/01 14:16:06;;;;;;;1.63;1.20;;;;;;;;;;7313259;19;140486;-81
2023/08/01 14:18:33;;;;;;;2.00;1.40;;;;;;;;;;7309302;19;142263;-82
2023/08/01 14:21:01;;;;;;;2.83;1.63;;;;;;;;;;7311926;19;141306;-82
2023/08/01 14:23:28;;;;;;;1.67;1.35;;;;;;;;;;7312231;19;141990;-81
2023/08/01 14:25:57;;;;;;;2.78;1.50;;;;;;;;;;7311873;19;140868;-81
2023/08/01 14:28:24;;;;;;;3.30;1.50;;;;;;;;;;7312490;19;140641;-81
2023/08/01 14:30:51;;;;;;;3.78;1.50;;;;;;;;;;7309637;19;141589;-82
2023/08/01 14:33:23;;;;;;;1.88;1.40;;;;;;;;;;7313058;19;142643;-78
2023/08/01 14:35:51;;;;;;;2.00;1.27;;;;;;;;;;7313847;19;140425;-79
2023/08/01 14:38:18;;;;;;;2.67;1.45;;;;;;;;;;7311494;19;140683;-79
2023/08/01 14:40:45;;;;;;;2.22;1.45;;;;;;;;;;7311557;19;141114;-78